Time;durP1;ratioP1;P1;durP2;ratioP2;P2;SDS_P1;SDS_P2;PMS_P1;PMS_P2;Temp;Humidity;BMP_temperature;BMP_pressure;BME280_temperature;BME280_humidity;BME280_pressure;Samples;Min_cycle;Max_cycle;Signal;HPM_P1;HPM_P2
2022/10/12 00:02:18;;;;;;;7.53;3.63;;;8.00;99.90;;;;;;5089705;28;20030;-78
2022/10/12 00:04:43;;;;;;;6.65;3.10;;;8.00;99.90;;;;;;5105308;28;20031;-76
2022/10/12 00:07:09;;;;;;;4.72;3.10;;;8.00;99.90;;;;;;5117854;28;20023;-80
2022/10/12 00:09:35;;;;;;;8.05;3.60;;;7.90;99.90;;;;;;5099000;28;20340;-79
2022/10/12 00:12:00;;;;;;;7.55;3.40;;;7.80;99.90;;;;;;5072830;28;20038;-78
2022/10/12 00:14:32;;;;;;;8.02;4.43;;;8.80;99.90;;;;;;5066889;28;20191;-80
2022/10/12 00:17:07;;;;;;;6.50;3.60;;;7.90;99.90;;;;;;5097312;28;20195;-78
2022/10/12 00:19:33;;;;;;;7.18;3.85;;;7.80;99.90;;;;;;5075372;28;20110;-80
2022/10/12 00:21:58;;;;;;;6.35;3.80;;;7.90;99.90;;;;;;5108456;28;20244;-79
2022/10/12 00:24:24;;;;;;;9.95;3.58;;;8.10;99.90;;;;;;5112165;28;20036;-79
2022/10/12 00:26:50;;;;;;;6.57;3.47;;;7.90;99.90;;;;;;5084858;28;20031;-79
2022/10/12 00:29:16;;;;;;;8.68;3.78;;;7.40;99.90;;;;;;5100975;28;20035;-79
2022/10/12 00:31:41;;;;;;;10.55;4.00;;;8.00;99.90;;;;;;5100570;28;20043;-80
2022/10/12 00:34:08;;;;;;;11.02;3.65;;;9.30;99.90;;;;;;5099296;28;20336;-78
2022/10/12 00:36:34;;;;;;;7.82;3.55;;;7.80;99.90;;;;;;5099020;28;20222;-78
2022/10/12 00:39:02;;;;;;;8.27;3.17;;;7.80;99.90;;;;;;5099758;28;20035;-79
2022/10/12 00:41:31;;;;;;;8.90;3.42;;;7.90;99.90;;;;;;5116878;28;20031;-79
2022/10/12 00:43:57;;;;;;;7.78;3.15;;;7.80;99.90;;;;;;5109291;28;20328;-77
2022/10/12 00:46:31;;;;;;;7.63;4.15;;;7.90;99.90;;;;;;5115867;28;20044;-78
2022/10/12 00:49:20;;;;;;;8.75;3.55;;;7.80;99.90;;;;;;5110967;28;20035;-78
2022/10/12 00:51:59;;;;;;;6.65;3.42;;;7.80;99.90;;;;;;5085568;28;20036;-78
2022/10/12 00:54:29;;;;;;;8.02;3.30;;;7.70;99.90;;;;;;5089775;28;20442;-77
2022/10/12 00:56:56;;;;;;;8.70;3.88;;;7.80;99.90;;;;;;5086202;28;20036;-78
2022/10/12 00:59:29;;;;;;;5.65;3.50;;;7.70;99.90;;;;;;5086352;28;20077;-79
2022/10/12 01:01:55;;;;;;;8.48;3.85;;;7.80;99.90;;;;;;5090646;28;20032;-80
2022/10/12 01:04:22;;;;;;;9.02;3.40;;;7.70;99.90;;;;;;5082815;28;20230;-80
2022/10/12 01:06:49;;;;;;;7.32;3.58;;;7.80;99.90;;;;;;5064523;28;20078;-78
2022/10/12 01:09:15;;;;;;;10.50;3.65;;;8.30;99.90;;;;;;5078218;28;20067;-78
2022/10/12 01:11:40;;;;;;;8.70;3.38;;;7.90;99.90;;;;;;5100324;28;20074;-81
2022/10/12 01:14:06;;;;;;;6.60;3.20;;;7.90;99.90;;;;;;5084050;28;20037;-78
2022/10/12 01:16:58;;;;;;;6.13;3.15;;;7.70;99.90;;;;;;5064574;28;20025;-77
2022/10/12 01:19:49;;;;;;;7.30;3.60;;;7.70;99.90;;;;;;5088179;28;20032;-78
2022/10/12 01:22:19;;;;;;;9.02;3.65;;;7.70;99.90;;;;;;5095293;28;20039;-78
2022/10/12 01:24:53;;;;;;;7.72;3.42;;;7.70;99.90;;;;;;5085729;28;20043;-79
2022/10/12 01:27:40;;;;;;;6.90;3.42;;;7.90;99.90;;;;;;5082843;28;20054;-78
2022/10/12 01:30:17;;;;;;;9.30;4.15;;;7.70;99.90;;;;;;5086581;28;20031;-80
2022/10/12 01:33:12;;;;;;;6.97;3.72;;;7.70;99.90;;;;;;5100706;28;20427;-81
2022/10/12 01:35:52;;;;;;;8.75;4.32;;;7.80;99.90;;;;;;5094408;28;20046;-80
2022/10/12 01:38:23;;;;;;;10.75;5.05;;;7.80;99.90;;;;;;5101203;28;20073;-81
2022/10/12 01:41:31;;;;;;;10.82;4.93;;;7.30;99.90;;;;;;5085190;28;20411;-80
2022/10/12 01:43:57;;;;;;;10.50;4.68;;;8.00;99.90;;;;;;5066647;28;20040;-80
2022/10/12 01:46:22;;;;;;;12.40;5.03;;;7.80;99.90;;;;;;5080089;28;20062;-79
2022/10/12 01:48:50;;;;;;;10.90;5.20;;;7.90;99.90;;;;;;5103468;28;20024;-80
2022/10/12 01:51:23;;;;;;;6.28;4.28;;;7.90;99.90;;;;;;5082480;28;20036;-80
2022/10/12 01:53:58;;;;;;;7.03;4.07;;;7.50;99.90;;;;;;5092189;28;20037;-81
2022/10/12 01:56:30;;;;;;;6.78;3.90;;;7.00;99.90;;;;;;5074469;28;20055;-79
2022/10/12 01:59:24;;;;;;;6.05;3.80;;;7.00;99.90;;;;;;5088390;28;20035;-82
2022/10/12 02:02:28;;;;;;;8.50;4.00;;;7.00;99.90;;;;;;5108280;28;20326;-81
2022/10/12 02:05:08;;;;;;;6.00;3.90;;;7.00;99.90;;;;;;5095609;28;20213;-81
2022/10/12 02:07:54;;;;;;;8.57;4.57;;;7.10;99.90;;;;;;5084842;28;20338;-80
2022/10/12 02:10:43;;;;;;;5.60;4.70;;;7.10;99.90;;;;;;5078221;28;20035;-79
2022/10/12 02:14:48;;;;;;;8.57;4.85;;;7.40;99.90;;;;;;5086135;28;20035;-81
2022/10/12 02:17:16;;;;;;;7.93;4.57;;;7.70;99.90;;;;;;5021278;28;20034;-79
2022/10/12 02:19:47;;;;;;;7.20;4.28;;;7.90;99.90;;;;;;5071082;28;20054;-79
2022/10/12 02:22:15;;;;;;;8.77;4.60;;;7.90;99.90;;;;;;5084188;28;20058;-79
2022/10/12 02:24:44;;;;;;;10.02;5.00;;;8.00;99.90;;;;;;5077180;28;20214;-80
2022/10/12 02:27:13;;;;;;;6.55;4.90;;;7.80;99.90;;;;;;5083114;28;20036;-79
2022/10/12 02:29:41;;;;;;;10.88;4.97;;;7.90;99.90;;;;;;5107309;28;20047;-79
2022/10/12 02:32:19;;;;;;;7.18;4.90;;;7.80;99.90;;;;;;5086247;28;20038;-78
2022/10/12 02:34:54;;;;;;;5.75;4.53;;;7.70;99.90;;;;;;5083452;28;20048;-77
2022/10/12 02:37:37;;;;;;;5.22;3.47;;;7.40;99.90;;;;;;5086873;28;20069;-77
2022/10/12 02:40:16;;;;;;;5.05;3.67;;;7.20;99.90;;;;;;5099860;28;20155;-78
2022/10/12 02:42:50;;;;;;;7.63;4.03;;;7.20;99.90;;;;;;5093637;28;20081;-76
2022/10/12 02:45:17;;;;;;;4.85;3.70;;;7.20;99.90;;;;;;5110506;28;20031;-77
2022/10/12 02:47:45;;;;;;;4.40;3.40;;;7.10;99.90;;;;;;5086245;28;20207;-79
2022/10/12 02:50:12;;;;;;;10.55;4.25;;;7.10;99.90;;;;;;5084170;28;20064;-77
2022/10/12 02:52:38;;;;;;;9.63;4.57;;;7.30;99.90;;;;;;5081825;28;20107;-78
2022/10/12 02:55:04;;;;;;;9.43;4.85;;;7.50;99.90;;;;;;5085884;28;20036;-76
2022/10/12 02:57:30;;;;;;;10.45;4.57;;;7.60;99.90;;;;;;5083845;28;20024;-79
2022/10/12 02:59:56;;;;;;;12.82;4.40;;;7.70;99.90;;;;;;5082215;28;20058;-79
2022/10/12 03:02:21;;;;;;;9.43;4.22;;;7.70;99.90;;;;;;5104346;28;20341;-79
2022/10/12 03:04:47;;;;;;;9.18;4.90;;;7.90;99.90;;;;;;5083382;28;20071;-79
2022/10/12 03:07:13;;;;;;;7.18;4.25;;;7.80;99.90;;;;;;5083817;28;20238;-79
2022/10/12 03:09:38;;;;;;;8.60;4.78;;;9.10;99.90;;;;;;5062492;28;20361;-79
2022/10/12 03:12:04;;;;;;;10.77;4.63;;;8.00;99.90;;;;;;5077191;28;20043;-79
2022/10/12 03:14:31;;;;;;;7.03;3.58;;;7.70;99.90;;;;;;5065426;28;20055;-79
2022/10/12 03:16:57;;;;;;;6.38;2.92;;;7.70;99.90;;;;;;5081642;28;20027;-80
2022/10/12 03:19:23;;;;;;;5.50;2.92;;;7.40;99.90;;;;;;5083128;28;20043;-78
2022/10/12 03:21:48;;;;;;;6.25;3.30;;;7.30;99.90;;;;;;5092087;28;20024;-78
2022/10/12 03:24:14;;;;;;;5.82;3.13;;;7.20;99.90;;;;;;5090750;28;20035;-78
2022/10/12 03:26:40;;;;;;;4.85;3.03;;;7.00;99.90;;;;;;5098769;28;20067;-78
2022/10/12 03:29:08;;;;;;;4.70;2.90;;;7.00;99.90;;;;;;5085902;28;20333;-78
2022/10/12 03:31:33;;;;;;;4.15;2.85;;;6.80;99.90;;;;;;5093975;28;20325;-78
2022/10/12 03:33:59;;;;;;;4.47;2.50;;;6.80;99.90;;;;;;5096499;28;20088;-78
2022/10/12 03:36:25;;;;;;;5.25;2.58;;;6.70;99.90;;;;;;5059310;28;20024;-78
2022/10/12 03:38:51;;;;;;;4.68;3.00;;;8.40;99.90;;;;;;5072492;28;20093;-78
2022/10/12 03:41:17;;;;;;;7.88;3.10;;;6.90;99.90;;;;;;5083293;28;20055;-78
2022/10/12 03:43:42;;;;;;;6.20;3.17;;;6.70;99.90;;;;;;5085335;28;20040;-78
2022/10/12 03:46:08;;;;;;;4.30;3.15;;;7.00;99.90;;;;;;5090899;28;20021;-79
2022/10/12 03:48:34;;;;;;;4.25;3.30;;;7.10;99.90;;;;;;5067843;28;20039;-78
2022/10/12 03:50:59;;;;;;;9.00;3.30;;;7.00;99.90;;;;;;5082367;28;20297;-78
2022/10/12 03:53:25;;;;;;;4.88;3.05;;;7.20;99.90;;;;;;5082400;28;20312;-79
2022/10/12 03:55:51;;;;;;;4.82;3.20;;;7.50;99.90;;;;;;5066688;28;20134;-79
2022/10/12 03:58:17;;;;;;;5.65;3.63;;;7.50;99.90;;;;;;5098806;28;20284;-79
2022/10/12 04:00:43;;;;;;;6.28;3.47;;;7.60;99.90;;;;;;5066818;28;20219;-79
2022/10/12 04:03:09;;;;;;;4.43;3.35;;;7.50;99.90;;;;;;5088778;28;20243;-79
2022/10/12 04:05:35;;;;;;;7.05;3.63;;;7.70;99.90;;;;;;5069108;28;20032;-79
2022/10/12 04:08:01;;;;;;;7.65;3.53;;;7.40;99.90;;;;;;5105717;28;20032;-79
2022/10/12 04:10:26;;;;;;;4.65;3.33;;;7.90;99.90;;;;;;5100960;28;20082;-78
2022/10/12 04:12:52;;;;;;;5.65;4.13;;;7.40;99.90;;;;;;5069758;28;20023;-80
2022/10/12 04:15:18;;;;;;;4.57;3.17;;;7.50;99.90;;;;;;5070302;28;20040;-79
2022/10/12 04:17:45;;;;;;;8.02;3.40;;;8.80;99.90;;;;;;5095193;28;20036;-79
2022/10/12 04:20:11;;;;;;;6.95;3.28;;;7.50;99.90;;;;;;5094877;28;20318;-78
2022/10/12 04:22:38;;;;;;;7.55;4.05;;;7.40;99.90;;;;;;5094716;28;20080;-79
2022/10/12 04:25:04;;;;;;;7.55;3.63;;;7.60;99.90;;;;;;5114142;28;20341;-78
2022/10/12 04:27:30;;;;;;;11.15;3.67;;;7.50;99.90;;;;;;5083427;28;20024;-78
2022/10/12 04:29:56;;;;;;;8.93;3.50;;;7.60;99.90;;;;;;5073745;28;20341;-79
2022/10/12 04:32:21;;;;;;;6.30;3.80;;;8.10;99.90;;;;;;5056955;28;20202;-78
2022/10/12 04:34:47;;;;;;;7.03;3.10;;;7.50;99.90;;;;;;5106186;28;20048;-78
2022/10/12 04:37:13;;;;;;;7.90;3.40;;;8.50;99.90;;;;;;5103468;28;20072;-77
2022/10/12 04:39:38;;;;;;;6.85;3.38;;;7.70;99.90;;;;;;5079381;28;20021;-79
2022/10/12 04:42:05;;;;;;;6.60;3.75;;;7.60;99.90;;;;;;5067259;28;20067;-81
2022/10/12 04:44:37;;;;;;;6.07;2.85;;;7.50;99.90;;;;;;5088280;28;20278;-79
2022/10/12 04:47:02;;;;;;;7.32;3.22;;;7.30;99.90;;;;;;5089847;28;20036;-80
2022/10/12 04:49:28;;;;;;;7.22;3.25;;;7.70;99.90;;;;;;5085413;28;20028;-79
2022/10/12 04:51:54;;;;;;;7.95;3.55;;;7.80;99.90;;;;;;5084488;28;20298;-78
2022/10/12 04:54:19;;;;;;;6.32;3.33;;;7.70;99.90;;;;;;5103402;28;20065;-77
2022/10/12 04:56:45;;;;;;;9.18;3.83;;;7.80;99.90;;;;;;5085798;28;20028;-78
2022/10/12 04:59:11;;;;;;;7.43;3.60;;;7.60;99.90;;;;;;5073406;28;20316;-78
2022/10/12 05:01:36;;;;;;;6.65;3.17;;;7.80;99.90;;;;;;5063324;28;20058;-78
2022/10/12 05:04:02;;;;;;;7.18;3.40;;;7.80;99.90;;;;;;5065789;28;20204;-79
2022/10/12 05:06:28;;;;;;;5.85;3.58;;;7.60;99.90;;;;;;5084179;28;20035;-78
2022/10/12 05:08:54;;;;;;;9.38;3.58;;;7.70;99.90;;;;;;5067359;28;20028;-76
2022/10/12 05:11:19;;;;;;;5.47;3.10;;;7.80;99.90;;;;;;5080335;28;20040;-77
2022/10/12 05:13:45;;;;;;;6.18;3.13;;;7.80;99.90;;;;;;5073119;28;20095;-76
2022/10/12 05:16:11;;;;;;;6.00;3.70;;;7.60;99.90;;;;;;5052707;28;20119;-78
2022/10/12 05:18:36;;;;;;;10.23;3.50;;;8.70;99.90;;;;;;5069548;28;20035;-77
2022/10/12 05:21:02;;;;;;;7.63;3.22;;;7.60;99.90;;;;;;5093349;28;20027;-79
2022/10/12 05:23:28;;;;;;;11.02;3.97;;;7.70;99.90;;;;;;5081389;28;20032;-79
2022/10/12 05:26:19;;;;;;;12.88;4.07;;;7.70;99.90;;;;;;5064535;28;20028;-78
2022/10/12 05:28:48;;;;;;;9.43;4.05;;;7.60;99.90;;;;;;5104203;28;20227;-78
2022/10/12 05:31:16;;;;;;;7.63;3.80;;;7.50;99.90;;;;;;5075294;28;20039;-78
2022/10/12 05:33:42;;;;;;;8.25;3.63;;;7.70;99.90;;;;;;5086297;28;20051;-78
2022/10/12 05:36:08;;;;;;;7.65;3.20;;;7.70;99.90;;;;;;5085421;28;20048;-80
2022/10/12 05:38:34;;;;;;;10.40;4.68;;;7.80;99.90;;;;;;5084095;28;20068;-79
2022/10/12 05:40:59;;;;;;;9.75;4.28;;;7.60;99.90;;;;;;5102867;28;20062;-80
2022/10/12 05:43:27;;;;;;;11.90;4.43;;;7.80;99.90;;;;;;5085435;28;20040;-78
2022/10/12 05:46:04;;;;;;;11.77;4.15;;;7.70;99.90;;;;;;5066338;28;20024;-79
2022/10/12 05:48:30;;;;;;;15.60;4.82;;;7.70;99.90;;;;;;5072099;28;20034;-80
2022/10/12 05:50:56;;;;;;;10.70;5.10;;;8.20;99.90;;;;;;5085445;28;20318;-79
2022/10/12 05:53:23;;;;;;;14.25;5.32;;;10.00;99.90;;;;;;5084748;28;20031;-79
2022/10/12 05:55:57;;;;;;;7.00;4.60;;;7.80;99.90;;;;;;5094285;28;20086;-80
2022/10/12 05:58:24;;;;;;;10.13;5.10;;;7.30;99.90;;;;;;5106565;28;20049;-79
2022/10/12 06:00:50;;;;;;;10.02;5.55;;;7.90;99.90;;;;;;5100461;28;20036;-79
2022/10/12 06:03:16;;;;;;;8.48;4.63;;;7.90;99.90;;;;;;5100187;28;20134;-78
2022/10/12 06:05:42;;;;;;;10.98;5.25;;;7.80;99.90;;;;;;5066634;28;20023;-80
2022/10/12 06:08:09;;;;;;;9.48;5.60;;;8.60;99.90;;;;;;5067748;28;20032;-79
2022/10/12 06:14:02;;;;;;;11.95;5.32;;;7.60;99.90;;;;;;5067764;28;20040;-74
2022/10/12 06:16:28;;;;;;;19.65;6.95;;;7.70;99.90;;;;;;5083826;28;20032;-80
2022/10/12 06:18:54;;;;;;;10.75;5.50;;;7.70;99.90;;;;;;5084322;28;20079;-82
2022/10/12 06:21:20;;;;;;;13.73;6.13;;;7.60;99.90;;;;;;5084427;28;20040;-80
2022/10/12 06:23:45;;;;;;;9.30;5.75;;;7.40;99.90;;;;;;5068398;28;20100;-81
2022/10/12 06:26:11;;;;;;;11.57;6.10;;;7.60;99.90;;;;;;5068964;28;20055;-80
2022/10/12 06:28:37;;;;;;;12.93;5.63;;;7.40;99.90;;;;;;5082872;28;20051;-80
2022/10/12 06:31:03;;;;;;;12.88;7.18;;;7.40;99.90;;;;;;5064404;28;20187;-82
2022/10/12 06:33:29;;;;;;;10.88;6.82;;;7.60;99.90;;;;;;5122474;28;20067;-81
2022/10/12 06:35:56;;;;;;;13.30;7.22;;;9.10;99.90;;;;;;5088221;28;20031;-79
2022/10/12 06:38:22;;;;;;;13.73;6.50;;;7.40;99.90;;;;;;5100708;28;20040;-79
2022/10/12 06:40:48;;;;;;;12.98;6.90;;;7.90;99.90;;;;;;5078659;28;20035;-79
2022/10/12 06:43:14;;;;;;;14.70;6.63;;;7.70;99.90;;;;;;5101410;28;20024;-80
2022/10/12 06:45:40;;;;;;;10.43;6.55;;;6.00;99.90;;;;;;5078644;28;20032;-76
2022/10/12 06:48:06;;;;;;;11.98;6.75;;;7.70;99.90;;;;;;5078715;28;20024;-79
2022/10/12 06:50:32;;;;;;;13.48;6.53;;;8.00;99.90;;;;;;5083893;28;20383;-78
2022/10/12 06:52:58;;;;;;;8.38;6.10;;;7.50;99.90;;;;;;5101958;28;20394;-81
2022/10/12 06:55:24;;;;;;;11.55;6.13;;;7.90;99.90;;;;;;5085643;28;20222;-81
2022/10/12 06:57:50;;;;;;;9.30;5.70;;;8.20;99.90;;;;;;5102507;28;20028;-79
2022/10/12 07:00:16;;;;;;;12.90;6.55;;;8.20;99.90;;;;;;5101096;28;20306;-78
2022/10/12 07:02:41;;;;;;;11.23;6.35;;;8.30;99.90;;;;;;5063825;28;20047;-79
2022/10/12 07:05:08;;;;;;;11.18;6.05;;;8.20;99.90;;;;;;5051515;28;20032;-79
2022/10/12 07:07:35;;;;;;;13.05;5.93;;;8.50;99.90;;;;;;5111935;28;20036;-79
2022/10/12 07:10:01;;;;;;;10.40;5.30;;;8.50;99.90;;;;;;5082896;28;20035;-78
2022/10/12 07:12:29;;;;;;;10.80;5.20;;;8.60;99.90;;;;;;5100857;28;20028;-78
2022/10/12 07:14:56;;;;;;;14.50;5.35;;;8.50;99.90;;;;;;5067944;28;20290;-78
2022/10/12 07:17:22;;;;;;;12.13;5.72;;;8.80;99.90;;;;;;5084193;28;20043;-77
2022/10/12 07:19:48;;;;;;;10.18;5.10;;;8.70;99.90;;;;;;5082762;28;20032;-77
2022/10/12 07:22:13;;;;;;;12.85;5.45;;;8.70;99.90;;;;;;5084149;28;20107;-77
2022/10/12 07:24:39;;;;;;;9.18;5.22;;;9.00;99.90;;;;;;5100029;28;20024;-78
2022/10/12 07:27:25;;;;;;;10.07;5.45;;;9.10;99.90;;;;;;5079936;28;20036;-78
2022/10/12 07:30:37;;;;;;;12.30;6.32;;;8.90;99.90;;;;;;5079328;28;20048;-79
2022/10/12 07:33:02;;;;;;;10.55;5.55;;;8.10;99.90;;;;;;5091856;28;20036;-77
2022/10/12 07:35:27;;;;;;;13.30;6.50;;;9.00;99.90;;;;;;5047948;28;20048;-77
2022/10/12 07:37:53;;;;;;;11.68;6.03;;;9.00;99.90;;;;;;5062513;28;20135;-78
2022/10/12 07:40:19;;;;;;;14.43;6.18;;;9.20;99.90;;;;;;5082836;28;20274;-77
2022/10/12 07:42:44;;;;;;;10.75;7.30;;;9.20;99.90;;;;;;5059847;28;20480;-78
2022/10/12 07:45:10;;;;;;;12.52;7.30;;;9.00;99.90;;;;;;5077147;28;20035;-78
2022/10/12 07:47:36;;;;;;;10.40;6.97;;;8.90;99.90;;;;;;5081868;28;20043;-77
2022/10/12 07:50:01;;;;;;;14.30;7.38;;;8.90;99.90;;;;;;5054990;28;20071;-78
2022/10/12 07:52:27;;;;;;;16.27;8.18;;;9.00;99.90;;;;;;5065840;28;20051;-77
2022/10/12 07:54:53;;;;;;;19.73;7.57;;;8.90;99.90;;;;;;5068063;28;20038;-77
2022/10/12 07:57:19;;;;;;;12.48;7.53;;;9.00;99.90;;;;;;5098002;28;20336;-77
2022/10/12 07:59:45;;;;;;;15.63;7.72;;;9.00;99.90;;;;;;5086019;28;20295;-78
2022/10/12 08:02:11;;;;;;;17.75;8.35;;;9.00;99.90;;;;;;5086696;28;20036;-77
2022/10/12 08:04:37;;;;;;;17.85;8.35;;;9.20;99.90;;;;;;5084227;28;20039;-77
2022/10/12 08:07:02;;;;;;;12.85;6.78;;;9.20;99.90;;;;;;5101217;28;20247;-78
2022/10/12 08:09:28;;;;;;;15.00;7.05;;;9.30;99.90;;;;;;5068119;28;20028;-78
2022/10/12 08:11:55;;;;;;;9.75;7.63;;;9.40;99.90;;;;;;5084813;28;20036;-78
2022/10/12 08:14:21;;;;;;;15.93;7.32;;;9.60;99.90;;;;;;5064705;28;20102;-78
2022/10/12 08:16:46;;;;;;;16.45;8.00;;;9.60;99.90;;;;;;5102867;28;20024;-79
2022/10/12 08:19:12;;;;;;;13.93;7.75;;;9.70;99.90;;;;;;5086264;28;20036;-78
2022/10/12 08:21:39;;;;;;;14.88;7.88;;;9.70;99.90;;;;;;5069370;28;20034;-78
2022/10/12 08:24:05;;;;;;;14.43;7.93;;;9.90;99.90;;;;;;5078657;28;20071;-78
2022/10/12 08:26:32;;;;;;;12.23;7.10;;;10.00;99.90;;;;;;5065601;28;20048;-78
2022/10/12 08:28:59;;;;;;;13.32;7.80;;;10.10;99.90;;;;;;5104459;28;20040;-78
2022/10/12 08:31:25;;;;;;;16.13;8.25;;;10.20;99.90;;;;;;5102743;28;20047;-78
2022/10/12 08:33:50;;;;;;;15.77;8.85;;;10.30;99.90;;;;;;5085948;28;20044;-79
2022/10/12 08:36:16;;;;;;;13.13;8.20;;;10.40;99.90;;;;;;5086106;28;20044;-77
2022/10/12 08:38:42;;;;;;;16.48;8.07;;;10.50;99.90;;;;;;5068788;28;20032;-77
2022/10/12 08:41:53;;;;;;;16.13;8.00;;;10.50;99.90;;;;;;5102672;28;20028;-78
2022/10/12 08:44:36;;;;;;;17.30;8.52;;;10.60;99.90;;;;;;5064727;28;20032;-77
2022/10/12 08:47:20;;;;;;;13.38;7.57;;;10.80;99.90;;;;;;5081468;28;20318;-77
2022/10/12 08:49:49;;;;;;;14.13;8.20;;;11.00;99.90;;;;;;5100551;28;20094;-77
2022/10/12 08:52:47;;;;;;;13.20;7.25;;;11.20;99.90;;;;;;5083815;28;20231;-78
2022/10/12 08:55:27;;;;;;;12.65;7.20;;;11.10;99.90;;;;;;5092816;28;20103;-78
2022/10/12 08:57:53;;;;;;;12.60;7.82;;;11.30;99.90;;;;;;5101902;28;20319;-78
2022/10/12 09:00:19;;;;;;;15.15;7.28;;;11.40;99.90;;;;;;5085847;28;20020;-78
2022/10/12 09:02:44;;;;;;;12.30;7.25;;;11.40;99.90;;;;;;5051613;28;20036;-79
2022/10/12 09:05:17;;;;;;;17.33;7.75;;;11.20;99.90;;;;;;5085895;28;20027;-78
2022/10/12 09:12:31;;;;;;;10.25;5.55;;;11.20;99.90;;;;;;5002903;28;20173;-77
2022/10/12 09:15:08;;;;;;;14.00;6.35;;;11.10;99.90;;;;;;5102007;28;20078;-77
2022/10/12 09:17:55;;;;;;;11.40;6.00;;;11.30;99.90;;;;;;5084451;28;20035;-78
2022/10/12 09:20:35;;;;;;;12.80;6.50;;;11.10;99.90;;;;;;5102103;28;20066;-78
2022/10/12 09:23:03;;;;;;;16.42;6.88;;;11.20;99.90;;;;;;5085033;28;20540;-78
2022/10/12 09:25:29;;;;;;;11.38;7.00;;;11.20;99.90;;;;;;5085296;28;20229;-78
2022/10/12 09:28:19;;;;;;;13.90;7.57;;;11.30;99.90;;;;;;5084712;28;20046;-77
2022/10/12 09:31:00;;;;;;;12.80;6.78;;;11.30;99.90;;;;;;5101079;28;20038;-77
2022/10/12 09:33:44;;;;;;;;;;;;;;;;;;;;;
2022/10/12 09:36:13;;;;;;;11.00;6.03;;;12.00;99.90;;;;;;5102286;28;20040;-82
2022/10/12 09:38:38;;;;;;;11.93;6.18;;;11.50;99.90;;;;;;5085212;28;20054;-81
2022/10/12 09:41:04;;;;;;;11.57;5.93;;;11.70;99.90;;;;;;5067955;28;20016;-81
2022/10/12 09:43:30;;;;;;;13.13;5.63;;;12.10;99.90;;;;;;5065650;28;20103;-81
2022/10/12 09:46:00;;;;;;;14.35;5.38;;;12.60;99.90;;;;;;5061391;28;20038;-82
2022/10/12 09:48:26;;;;;;;12.65;6.22;;;12.70;99.90;;;;;;5080451;28;20035;-82
2022/10/12 09:50:59;;;;;;;10.35;4.93;;;12.60;99.90;;;;;;5084252;28;20121;-78
2022/10/12 09:53:34;;;;;;;12.18;4.60;;;12.60;99.90;;;;;;5085058;28;20032;-82
2022/10/12 09:56:03;;;;;;;7.55;3.53;;;12.70;99.90;;;;;;5083679;28;20122;-81
2022/10/12 09:58:34;;;;;;;11.88;4.63;;;12.90;99.90;;;;;;5101764;28;20601;-80
2022/10/12 10:01:18;;;;;;;9.93;3.75;;;12.80;99.90;;;;;;5084077;28;20246;-85
2022/10/12 10:03:46;;;;;;;9.38;3.50;;;12.60;99.90;;;;;;5084303;28;20036;-79
2022/10/12 10:06:14;;;;;;;10.65;3.67;;;12.80;99.90;;;;;;5101753;28;20040;-79
2022/10/12 10:08:44;;;;;;;14.50;4.28;;;12.80;99.90;;;;;;5084523;28;20331;-79
2022/10/12 10:11:22;;;;;;;7.60;3.00;;;12.80;99.90;;;;;;5084959;28;20069;-80
2022/10/12 10:13:51;;;;;;;11.43;3.40;;;12.90;99.90;;;;;;5095264;28;20225;-79
2022/10/12 10:16:18;;;;;;;10.35;4.13;;;12.90;99.90;;;;;;5101897;28;20222;-78
2022/10/12 10:18:47;;;;;;;8.68;2.70;;;13.00;99.90;;;;;;5099599;28;20036;-81
2022/10/12 10:21:23;;;;;;;8.15;3.85;;;13.30;99.90;;;;;;5101141;28;20077;-79
2022/10/12 10:23:55;;;;;;;11.27;4.10;;;13.10;99.90;;;;;;5089203;28;20095;-82
2022/10/12 10:26:22;;;;;;;9.65;4.07;;;13.30;99.90;;;;;;5084643;28;20331;-81
2022/10/12 10:28:55;;;;;;;8.05;2.70;;;13.50;99.90;;;;;;5065938;28;20324;-82
2022/10/12 10:31:26;;;;;;;9.27;2.80;;;13.50;99.90;;;;;;5101221;28;20040;-82
2022/10/12 10:34:16;;;;;;;6.88;2.53;;;13.40;99.90;;;;;;5101413;28;20097;-81
2022/10/12 10:37:03;;;;;;;9.63;2.50;;;13.50;99.90;;;;;;5100259;28;20116;-81
2022/10/12 10:40:30;;;;;;;7.72;2.60;;;13.50;99.90;;;;;;5087473;28;20043;-86
2022/10/12 10:43:24;;;;;;;7.70;3.08;;;13.60;99.90;;;;;;5093132;28;20039;-79
2022/10/12 10:46:08;;;;;;;11.82;3.13;;;13.50;99.90;;;;;;5104860;28;20034;-81
2022/10/12 10:49:05;;;;;;;6.88;2.33;;;13.60;99.90;;;;;;5080638;28;20215;-78
2022/10/12 10:51:56;;;;;;;19.42;3.42;;;13.70;99.90;;;;;;5098270;28;20040;-80
2022/10/12 10:54:22;;;;;;;6.47;2.42;;;13.70;99.90;;;;;;5100214;28;20047;-82
2022/10/12 10:56:51;;;;;;;5.97;2.20;;;13.80;99.90;;;;;;5085675;28;20031;-82
2022/10/12 10:59:56;;;;;;;6.95;2.22;;;13.70;99.90;;;;;;5097707;28;20385;-81
2022/10/12 11:02:44;;;;;;;7.18;2.38;;;13.60;99.90;;;;;;5064403;28;20448;-81
2022/10/12 11:05:12;;;;;;;11.00;3.15;;;13.80;99.90;;;;;;5100533;28;20040;-78
2022/10/12 11:07:51;;;;;;;7.63;2.35;;;13.70;99.90;;;;;;5099771;28;20032;-79
2022/10/12 11:10:40;;;;;;;9.32;2.72;;;13.80;99.90;;;;;;5085866;28;20031;-81
2022/10/12 11:13:15;;;;;;;13.60;2.90;;;14.00;99.90;;;;;;5077728;28;20031;-81
2022/10/12 11:15:47;;;;;;;6.25;2.28;;;14.00;99.90;;;;;;5082355;28;20027;-80
2022/10/12 11:18:21;;;;;;;8.40;2.83;;;13.90;99.90;;;;;;5098074;28;21388;-80
2022/10/12 11:21:09;;;;;;;6.75;2.38;;;13.90;99.90;;;;;;5097194;28;20048;-82
2022/10/12 11:23:55;;;;;;;7.35;2.20;;;13.90;99.90;;;;;;5081340;28;20035;-82
2022/10/12 11:26:51;;;;;;;7.63;2.05;;;14.00;99.90;;;;;;5087652;28;20044;-79
2022/10/12 11:29:26;;;;;;;5.25;2.38;;;14.00;99.90;;;;;;5100723;28;20036;-79
2022/10/12 11:32:07;;;;;;;6.82;2.30;;;14.10;99.90;;;;;;5082255;28;20039;-81
2022/10/12 11:34:52;;;;;;;5.00;1.60;;;14.10;99.90;;;;;;5083455;28;20161;-84
2022/10/12 11:37:37;;;;;;;5.47;1.83;;;14.00;99.90;;;;;;5075521;28;20366;-82
2022/10/12 11:40:08;;;;;;;7.15;2.30;;;15.30;99.90;;;;;;5089074;28;20043;-86
2022/10/12 11:42:45;;;;;;;6.50;2.03;;;14.10;99.90;;;;;;5083232;28;20032;-84
2022/10/12 11:45:25;;;;;;;8.48;2.00;;;14.10;99.90;;;;;;5067214;28;20103;-84
2022/10/12 11:48:47;;;;;;;6.43;1.52;;;14.10;99.90;;;;;;5104001;28;20310;-80
2022/10/12 11:51:13;;;;;;;3.78;1.98;;;14.10;99.90;;;;;;5033438;28;20218;-80
2022/10/12 11:54:01;;;;;;;5.57;1.80;;;14.20;99.90;;;;;;5062547;28;20103;-79
2022/10/12 11:56:36;;;;;;;7.05;1.85;;;14.20;99.90;;;;;;5085401;28;20032;-79
2022/10/12 11:59:34;;;;;;;7.13;2.03;;;14.30;99.90;;;;;;5082583;28;20035;-80
2022/10/12 12:02:18;;;;;;;5.60;1.90;;;14.20;99.90;;;;;;5083250;28;20036;-82
2022/10/12 12:04:47;;;;;;;5.93;1.95;;;14.20;99.90;;;;;;5083757;28;20463;-83
2022/10/12 12:07:42;;;;;;;6.05;2.10;;;14.20;99.90;;;;;;5089950;28;20036;-79
2022/10/12 12:10:26;;;;;;;4.97;1.95;;;14.30;99.90;;;;;;5099947;28;20038;-81
2022/10/12 12:13:13;;;;;;;3.87;1.53;;;14.20;99.90;;;;;;5083078;28;20051;-83
2022/10/12 12:15:59;;;;;;;7.28;1.90;;;14.10;99.90;;;;;;5082189;28;20482;-78
2022/10/12 12:18:28;;;;;;;5.63;1.48;;;14.20;99.90;;;;;;5078344;28;20387;-80
2022/10/12 12:21:00;;;;;;;5.85;1.67;;;14.10;99.90;;;;;;5100038;28;20210;-85
2022/10/12 12:23:50;;;;;;;4.47;1.80;;;14.20;99.90;;;;;;5100310;28;20031;-81
2022/10/12 12:26:18;;;;;;;6.70;1.77;;;14.20;99.90;;;;;;5083544;28;20039;-80
2022/10/12 12:28:48;;;;;;;7.88;1.75;;;14.20;99.90;;;;;;5083019;28;20043;-80
2022/10/12 12:31:15;;;;;;;8.15;2.08;;;14.30;99.90;;;;;;5100023;28;20134;-82
2022/10/12 12:33:46;;;;;;;6.35;1.90;;;14.20;99.90;;;;;;5082411;28;20024;-80
2022/10/12 12:36:25;;;;;;;9.95;2.00;;;14.20;99.90;;;;;;5081842;28;20071;-80
2022/10/12 12:38:51;;;;;;;5.78;1.58;;;14.30;99.90;;;;;;5081571;28;20093;-83
2022/10/12 12:41:41;;;;;;;3.10;1.60;;;14.30;99.90;;;;;;5082410;28;20234;-79
2022/10/12 12:44:32;;;;;;;2.83;1.50;;;14.30;99.90;;;;;;5085058;28;20032;-79
2022/10/12 12:47:01;;;;;;;6.97;1.60;;;14.30;99.90;;;;;;5086729;28;20219;-80
2022/10/12 12:49:39;;;;;;;6.72;1.98;;;14.20;99.90;;;;;;5087013;28;20059;-81
2022/10/12 12:52:28;;;;;;;5.55;1.70;;;14.20;99.90;;;;;;5088991;28;20028;-84
2022/10/12 12:55:06;;;;;;;4.35;1.50;;;14.00;99.90;;;;;;5086366;28;20031;-81
2022/10/12 12:57:50;;;;;;;6.60;1.70;;;14.10;99.90;;;;;;5086611;28;20346;-81
2022/10/12 13:00:24;;;;;;;5.50;1.70;;;14.30;99.90;;;;;;5086147;28;20184;-79
2022/10/12 13:03:49;;;;;;;7.07;1.77;;;14.10;99.90;;;;;;5100785;28;20337;-78
2022/10/12 13:06:29;;;;;;;7.55;2.22;;;14.10;99.90;;;;;;5100969;28;20035;-80
2022/10/12 13:09:20;;;;;;;4.88;1.65;;;14.10;99.90;;;;;;5098637;28;20067;-78
2022/10/12 13:12:14;;;;;;;7.95;2.03;;;14.10;99.90;;;;;;5083146;28;20020;-79
2022/10/12 13:15:09;;;;;;;7.78;2.17;;;14.00;99.90;;;;;;5090618;28;20151;-78
2022/10/12 13:17:40;;;;;;;5.13;1.80;;;14.10;99.90;;;;;;5083166;28;20055;-79
2022/10/12 13:20:17;;;;;;;5.07;1.60;;;14.20;99.90;;;;;;5084532;28;20040;-80
2022/10/12 13:22:45;;;;;;;7.70;1.90;;;14.30;99.90;;;;;;5100939;28;20245;-79
2022/10/12 13:25:19;;;;;;;6.28;1.70;;;14.30;99.90;;;;;;5082100;28;20028;-79
2022/10/12 13:27:50;;;;;;;6.85;1.85;;;14.30;99.90;;;;;;5083935;28;20036;-79